Time;durP1;ratioP1;P1;durP2;ratioP2;P2;SDS_P1;SDS_P2;PMS_P1;PMS_P2;Temp;Humidity;BMP_temperature;BMP_pressure;BME280_temperature;BME280_humidity;BME280_pressure;Samples;Min_cycle;Max_cycle;Signal;HPM_P1;HPM_P2
2023/08/20 00:01:03;;;;;;;890.60;669.38;;;;;;;;;;5087294;28;20054;-57
2023/08/20 00:03:29;;;;;;;876.90;657.67;;;;;;;;;;5085929;28;20039;-60
2023/08/20 00:05:54;;;;;;;884.17;659.97;;;;;;;;;;5087892;28;20027;-53
2023/08/20 00:08:19;;;;;;;890.47;658.33;;;;;;;;;;5086218;28;20719;-60
2023/08/20 00:10:45;;;;;;;887.95;646.03;;;;;;;;;;5087936;28;20145;-60
2023/08/20 00:13:10;;;;;;;885.65;660.72;;;;;;;;;;5087150;28;20031;-60
2023/08/20 00:15:35;;;;;;;889.88;669.05;;;;;;;;;;5087407;28;20548;-55
2023/08/20 00:18:01;;;;;;;881.05;660.42;;;;;;;;;;5085809;28;20054;-59
2023/08/20 00:20:27;;;;;;;885.33;668.42;;;;;;;;;;5087339;28;20073;-55
2023/08/20 00:22:53;;;;;;;887.38;657.50;;;;;;;;;;5085282;28;20042;-55
2023/08/20 00:25:19;;;;;;;875.42;636.22;;;;;;;;;;5087226;28;20028;-59
2023/08/20 00:27:44;;;;;;;874.65;646.50;;;;;;;;;;5085028;28;20028;-56
2023/08/20 00:30:10;;;;;;;876.33;641.97;;;;;;;;;;5086836;28;20118;-59
2023/08/20 00:32:35;;;;;;;875.10;636.13;;;;;;;;;;5075009;28;20051;-58
2023/08/20 00:35:02;;;;;;;876.20;632.20;;;;;;;;;;5066943;28;20109;-59
2023/08/20 00:37:28;;;;;;;874.65;622.67;;;;;;;;;;5074865;28;20020;-59
2023/08/20 00:39:53;;;;;;;871.97;618.38;;;;;;;;;;5086941;28;20416;-55
2023/08/20 00:42:19;;;;;;;872.10;616.38;;;;;;;;;;5085327;28;20465;-58
2023/08/20 00:44:44;;;;;;;865.08;617.80;;;;;;;;;;5087335;28;20024;-60
2023/08/20 00:47:10;;;;;;;876.75;644.25;;;;;;;;;;5084817;28;20388;-59
2023/08/20 00:49:36;;;;;;;877.97;649.78;;;;;;;;;;5085655;28;20026;-57
2023/08/20 00:52:01;;;;;;;876.63;627.83;;;;;;;;;;5084728;28;20052;-60
2023/08/20 00:54:27;;;;;;;884.40;654.10;;;;;;;;;;5085982;28;20092;-60
2023/08/20 00:56:52;;;;;;;879.42;627.42;;;;;;;;;;5084995;28;20024;-57
2023/08/20 00:59:18;;;;;;;880.05;653.38;;;;;;;;;;5086829;28;20028;-60
2023/08/20 01:01:43;;;;;;;884.05;658.42;;;;;;;;;;5084995;28;20078;-56
2023/08/20 01:04:09;;;;;;;879.63;650.38;;;;;;;;;;5086889;28;20042;-59
2023/08/20 01:06:53;;;;;;;878.13;634.92;;;;;;;;;;5084720;28;20024;-55
2023/08/20 01:09:42;;;;;;;869.67;591.58;;;;;;;;;;5086671;28;20051;-52
2023/08/20 01:12:08;;;;;;;873.38;631.72;;;;;;;;;;5083813;28;20387;-60
2023/08/20 01:14:34;;;;;;;876.35;629.42;;;;;;;;;;5082861;28;20019;-59
2023/08/20 01:16:59;;;;;;;871.42;620.92;;;;;;;;;;5082783;28;20026;-59
2023/08/20 01:19:24;;;;;;;873.93;606.83;;;;;;;;;;5086531;28;20561;-58
2023/08/20 01:22:05;;;;;;;871.10;583.35;;;;;;;;;;5084087;28;20252;-60
2023/08/20 01:24:39;;;;;;;874.33;585.60;;;;;;;;;;5086300;28;20031;-55
2023/08/20 01:27:07;;;;;;;879.00;603.28;;;;;;;;;;5085028;28;20074;-55
2023/08/20 01:29:33;;;;;;;873.10;611.35;;;;;;;;;;5086375;28;20028;-58
2023/08/20 01:31:58;;;;;;;877.65;597.20;;;;;;;;;;5084386;28;20405;-60
2023/08/20 01:34:24;;;;;;;873.97;629.95;;;;;;;;;;5086742;28;20110;-59
2023/08/20 01:36:49;;;;;;;876.47;614.38;;;;;;;;;;5084887;28;20434;-59
2023/08/20 01:39:14;;;;;;;876.75;609.42;;;;;;;;;;5086800;28;20016;-54
2023/08/20 01:41:40;;;;;;;904.67;626.53;;;;;;;;;;5084176;28;20024;-58
2023/08/20 01:44:05;;;;;;;876.20;614.33;;;;;;;;;;5086100;28;20578;-58
2023/08/20 01:46:31;;;;;;;883.03;615.90;;;;;;;;;;5085453;28;20031;-59
2023/08/20 01:48:56;;;;;;;876.87;585.23;;;;;;;;;;5085964;28;20484;-60
2023/08/20 01:51:21;;;;;;;877.92;597.13;;;;;;;;;;5087973;28;20248;-58
2023/08/20 01:53:47;;;;;;;881.67;623.70;;;;;;;;;;5090282;28;20369;-58
2023/08/20 01:56:12;;;;;;;885.47;623.30;;;;;;;;;;5087919;28;20306;-60
2023/08/20 01:58:38;;;;;;;888.70;635.53;;;;;;;;;;5090173;28;20265;-59
2023/08/20 02:01:03;;;;;;;884.75;602.70;;;;;;;;;;5089658;28;20024;-60
2023/08/20 02:03:29;;;;;;;887.15;619.58;;;;;;;;;;5087191;28;20051;-60
2023/08/20 02:05:54;;;;;;;883.63;610.53;;;;;;;;;;5090024;28;20034;-59
2023/08/20 02:08:20;;;;;;;882.17;589.35;;;;;;;;;;5089658;28;20020;-58
2023/08/20 02:10:45;;;;;;;889.35;632.97;;;;;;;;;;5089943;28;20393;-59
2023/08/20 02:13:10;;;;;;;886.25;619.55;;;;;;;;;;5087607;28;20648;-60
2023/08/20 02:15:35;;;;;;;886.97;623.40;;;;;;;;;;5088757;28;20043;-56
2023/08/20 02:18:01;;;;;;;883.97;605.57;;;;;;;;;;5088938;28;20537;-59
2023/08/20 02:20:26;;;;;;;891.47;583.45;;;;;;;;;;5090208;28;20256;-60
2023/08/20 02:22:51;;;;;;;884.78;594.20;;;;;;;;;;5089079;28;20381;-59
2023/08/20 02:25:17;;;;;;;882.57;601.20;;;;;;;;;;5089858;28;20024;-60
2023/08/20 02:27:42;;;;;;;874.30;592.07;;;;;;;;;;5087929;28;20264;-60
2023/08/20 02:30:07;;;;;;;883.90;595.75;;;;;;;;;;5086739;28;20781;-55
2023/08/20 02:32:33;;;;;;;881.67;603.15;;;;;;;;;;5088855;28;20103;-58
2023/08/20 02:34:58;;;;;;;883.78;603.40;;;;;;;;;;5103958;28;20040;-56
2023/08/20 02:37:23;;;;;;;883.92;613.30;;;;;;;;;;5087059;28;20039;-59
2023/08/20 02:39:49;;;;;;;881.10;580.95;;;;;;;;;;5089287;28;20446;-60
2023/08/20 02:42:14;;;;;;;886.97;614.13;;;;;;;;;;5087019;28;20020;-59
2023/08/20 02:44:40;;;;;;;893.53;607.80;;;;;;;;;;5088230;28;20757;-57
2023/08/20 02:47:05;;;;;;;893.33;622.65;;;;;;;;;;5080570;28;20465;-60
2023/08/20 02:49:30;;;;;;;889.08;614.80;;;;;;;;;;5067782;28;20366;-55
2023/08/20 02:51:55;;;;;;;892.60;623.80;;;;;;;;;;5075135;28;20129;-58
2023/08/20 02:54:21;;;;;;;890.80;574.53;;;;;;;;;;5088766;28;20647;-60
2023/08/20 02:56:46;;;;;;;881.57;569.73;;;;;;;;;;5087969;28;20020;-59
2023/08/20 02:59:11;;;;;;;882.83;593.03;;;;;;;;;;5087025;28;20257;-50
2023/08/20 03:01:36;;;;;;;886.03;587.73;;;;;;;;;;5086249;28;20257;-56
2023/08/20 03:04:02;;;;;;;880.77;560.70;;;;;;;;;;5089189;28;20771;-59
2023/08/20 03:06:27;;;;;;;883.85;591.22;;;;;;;;;;5085559;28;20293;-55
2023/08/20 03:08:53;;;;;;;887.38;572.28;;;;;;;;;;5089134;28;20053;-59
2023/08/20 03:11:18;;;;;;;889.53;585.20;;;;;;;;;;5087083;28;20439;-59
2023/08/20 03:13:44;;;;;;;887.65;605.75;;;;;;;;;;5089088;28;20024;-60
2023/08/20 03:16:09;;;;;;;876.15;540.45;;;;;;;;;;5087225;28;20038;-59
2023/08/20 03:18:34;;;;;;;888.50;597.55;;;;;;;;;;5087565;28;20024;-56
2023/08/20 03:21:00;;;;;;;883.43;568.50;;;;;;;;;;5087422;28;20481;-57
2023/08/20 03:23:25;;;;;;;888.35;590.70;;;;;;;;;;5088074;28;20285;-61
2023/08/20 03:25:50;;;;;;;887.05;597.80;;;;;;;;;;5088315;28;20070;-56
2023/08/20 03:28:17;;;;;;;887.03;593.28;;;;;;;;;;5086839;28;20032;-58
2023/08/20 03:30:42;;;;;;;882.95;570.22;;;;;;;;;;5086966;28;20504;-58
2023/08/20 03:33:07;;;;;;;883.50;574.22;;;;;;;;;;5086304;28;20031;-58
2023/08/20 03:35:33;;;;;;;902.23;587.87;;;;;;;;;;5087027;28;20047;-57
2023/08/20 03:37:58;;;;;;;881.20;565.87;;;;;;;;;;5086585;28;20260;-59
2023/08/20 03:40:23;;;;;;;879.23;531.70;;;;;;;;;;5088286;28;20319;-59
2023/08/20 03:42:49;;;;;;;879.20;554.15;;;;;;;;;;5085774;28;20780;-59
2023/08/20 03:45:14;;;;;;;885.65;552.58;;;;;;;;;;5085868;28;20020;-60
2023/08/20 03:47:39;;;;;;;877.97;522.17;;;;;;;;;;5082668;28;20394;-55
2023/08/20 03:50:05;;;;;;;884.10;553.70;;;;;;;;;;5087076;28;20256;-58
2023/08/20 03:52:31;;;;;;;885.45;564.90;;;;;;;;;;5085729;28;20485;-59
2023/08/20 03:54:56;;;;;;;877.55;539.30;;;;;;;;;;5087802;28;20024;-59
2023/08/20 03:57:22;;;;;;;862.13;533.33;;;;;;;;;;5085509;28;20023;-53
2023/08/20 03:59:47;;;;;;;910.80;632.88;;;;;;;;;;5087480;28;20024;-59
2023/08/20 04:02:12;;;;;;;891.33;591.80;;;;;;;;;;5101165;28;20032;-58
2023/08/20 04:04:38;;;;;;;924.15;661.88;;;;;;;;;;5088103;28;20024;-55
2023/08/20 04:07:03;;;;;;;888.15;553.67;;;;;;;;;;5080074;28;20028;-59
2023/08/20 04:09:28;;;;;;;888.20;573.43;;;;;;;;;;5067431;28;20028;-58
2023/08/20 04:11:53;;;;;;;877.80;538.92;;;;;;;;;;5085033;28;20269;-58
2023/08/20 04:14:19;;;;;;;908.25;613.08;;;;;;;;;;5087027;28;20075;-59
2023/08/20 04:16:44;;;;;;;895.60;605.67;;;;;;;;;;5085862;28;20028;-60
2023/08/20 04:19:09;;;;;;;891.90;591.90;;;;;;;;;;5087729;28;20062;-55
2023/08/20 04:21:35;;;;;;;861.20;522.17;;;;;;;;;;5079759;28;20122;-59
2023/08/20 04:24:00;;;;;;;896.90;559.50;;;;;;;;;;5086173;28;20028;-60
2023/08/20 04:26:25;;;;;;;877.17;541.50;;;;;;;;;;5083681;28;20267;-55
2023/08/20 04:28:51;;;;;;;913.67;647.33;;;;;;;;;;5084706;28;20024;-54
2023/08/20 04:31:16;;;;;;;884.63;575.67;;;;;;;;;;5082781;28;20263;-59
2023/08/20 04:33:41;;;;;;;879.45;576.30;;;;;;;;;;5083486;28;20784;-59
2023/08/20 04:36:06;;;;;;;878.22;529.72;;;;;;;;;;5083590;28;20042;-54
2023/08/20 04:38:32;;;;;;;892.83;581.03;;;;;;;;;;5083516;28;20040;-59
2023/08/20 04:40:57;;;;;;;889.30;595.53;;;;;;;;;;5083987;28;20119;-60
2023/08/20 04:43:22;;;;;;;894.28;616.03;;;;;;;;;;5048610;28;20753;-59
2023/08/20 04:45:49;;;;;;;893.70;618.05;;;;;;;;;;5084195;28;20282;-56
2023/08/20 04:48:14;;;;;;;895.58;620.35;;;;;;;;;;5049634;28;20101;-53
2023/08/20 04:50:39;;;;;;;894.22;604.33;;;;;;;;;;5083043;28;20028;-58
2023/08/20 04:53:05;;;;;;;891.20;606.80;;;;;;;;;;5080933;28;20666;-58
2023/08/20 04:55:30;;;;;;;890.42;582.97;;;;;;;;;;5083275;28;20268;-60
2023/08/20 04:57:55;;;;;;;893.27;616.37;;;;;;;;;;5050052;28;20032;-56
2023/08/20 05:00:21;;;;;;;897.90;625.87;;;;;;;;;;5084907;28;20371;-58
2023/08/20 05:02:46;;;;;;;907.90;654.55;;;;;;;;;;5084741;28;20633;-54
2023/08/20 05:05:12;;;;;;;911.63;671.07;;;;;;;;;;5085697;28;20114;-60
2023/08/20 05:07:37;;;;;;;904.20;659.67;;;;;;;;;;5083877;28;20269;-59
2023/08/20 05:10:03;;;;;;;913.13;680.63;;;;;;;;;;5085959;28;20027;-59
2023/08/20 05:12:28;;;;;;;913.33;684.45;;;;;;;;;;5082406;28;20257;-60
2023/08/20 05:14:53;;;;;;;914.72;685.45;;;;;;;;;;5085296;28;20028;-55
2023/08/20 05:17:19;;;;;;;918.23;700.37;;;;;;;;;;5082720;28;20661;-58
2023/08/20 05:19:44;;;;;;;926.65;716.17;;;;;;;;;;5086786;28;20276;-56
2023/08/20 05:22:11;;;;;;;930.63;726.25;;;;;;;;;;5083680;28;20024;-58
2023/08/20 05:24:37;;;;;;;930.35;732.00;;;;;;;;;;5071039;28;20035;-59
2023/08/20 05:27:08;;;;;;;932.33;738.65;;;;;;;;;;5088684;28;20028;-60
2023/08/20 05:29:34;;;;;;;931.55;741.72;;;;;;;;;;5090825;28;20012;-55
2023/08/20 05:31:59;;;;;;;933.33;749.80;;;;;;;;;;5088816;28;20699;-60
2023/08/20 05:34:24;;;;;;;940.20;768.88;;;;;;;;;;5090788;28;20024;-55
2023/08/20 05:36:50;;;;;;;939.33;772.37;;;;;;;;;;5088275;28;20051;-58
2023/08/20 05:39:15;;;;;;;942.07;782.60;;;;;;;;;;5090210;28;20874;-60
2023/08/20 05:41:40;;;;;;;953.03;791.37;;;;;;;;;;5086660;28;20023;-60
2023/08/20 05:44:05;;;;;;;958.03;798.67;;;;;;;;;;5088717;28;20377;-55
2023/08/20 05:46:31;;;;;;;963.13;806.93;;;;;;;;;;5084306;28;20273;-58
2023/08/20 05:48:56;;;;;;;967.25;820.63;;;;;;;;;;5087463;28;20314;-60
2023/08/20 05:51:21;;;;;;;969.17;817.60;;;;;;;;;;5084316;28;20020;-60
2023/08/20 05:53:46;;;;;;;969.57;818.77;;;;;;;;;;5083386;28;20563;-56
2023/08/20 05:56:12;;;;;;;966.90;830.40;;;;;;;;;;5085341;28;20272;-57
2023/08/20 05:58:37;;;;;;;962.27;822.27;;;;;;;;;;5088014;28;20389;-60
2023/08/20 06:01:02;;;;;;;964.20;835.13;;;;;;;;;;5086834;28;20248;-60
2023/08/20 06:03:27;;;;;;;955.83;830.83;;;;;;;;;;5088337;28;20280;-58
2023/08/20 06:05:53;;;;;;;967.40;849.90;;;;;;;;;;5086370;28;20020;-58
2023/08/20 06:08:18;;;;;;;965.03;846.90;;;;;;;;;;5090152;28;20513;-59
2023/08/20 06:10:43;;;;;;;975.73;862.63;;;;;;;;;;5087623;28;20058;-60
2023/08/20 06:13:09;;;;;;;964.55;853.28;;;;;;;;;;5087991;28;20257;-59
2023/08/20 06:15:34;;;;;;;977.85;869.83;;;;;;;;;;5088924;28;20377;-60
2023/08/20 06:17:59;;;;;;;984.00;875.47;;;;;;;;;;5087852;28;20027;-61
2023/08/20 06:20:25;;;;;;;971.83;864.63;;;;;;;;;;5090508;28;20059;-57
2023/08/20 06:22:50;;;;;;;7.20;5.53;;;;;;;;;;5087896;28;20672;-60
2023/08/20 06:25:15;;;;;;;6.10;5.50;;;;;;;;;;5089929;28;20026;-61
2023/08/20 06:27:41;;;;;;;11.35;5.20;;;;;;;;;;5085998;28;20550;-59
2023/08/20 06:30:06;;;;;;;5.75;5.13;;;;;;;;;;5087411;28;20103;-61
2023/08/20 06:32:31;;;;;;;6.18;5.05;;;;;;;;;;5085604;28;20024;-57
2023/08/20 06:34:57;;;;;;;8.17;5.40;;;;;;;;;;5088530;28;20024;-60
2023/08/20 06:37:22;;;;;;;7.63;5.40;;;;;;;;;;5085065;28;20020;-61
2023/08/20 06:39:47;;;;;;;6.57;5.13;;;;;;;;;;5088563;28;20032;-58
2023/08/20 06:42:13;;;;;;;7.57;4.43;;;;;;;;;;5082473;28;20378;-60
2023/08/20 06:44:38;;;;;;;6.32;5.10;;;;;;;;;;5088140;28;20024;-61
2023/08/20 06:47:04;;;;;;;5.68;5.15;;;;;;;;;;5087012;28;20077;-59
2023/08/20 06:49:29;;;;;;;6.78;4.93;;;;;;;;;;5089265;28;20022;-60
2023/08/20 06:51:54;;;;;;;9.27;5.43;;;;;;;;;;5085938;28;20083;-60
2023/08/20 06:54:19;;;;;;;5.53;5.00;;;;;;;;;;5086795;28;20746;-52
2023/08/20 06:56:45;;;;;;;7.30;5.37;;;;;;;;;;5084908;28;20024;-58
2023/08/20 06:59:10;;;;;;;7.07;4.83;;;;;;;;;;5088877;28;20020;-61
2023/08/20 07:01:35;;;;;;;6.88;4.68;;;;;;;;;;5087249;28;20054;-54
2023/08/20 07:04:01;;;;;;;5.78;4.78;;;;;;;;;;5088742;28;20044;-60
2023/08/20 07:06:26;;;;;;;10.70;4.50;;;;;;;;;;5084762;28;20489;-60
2023/08/20 07:08:51;;;;;;;5.95;4.50;;;;;;;;;;5088643;28;20063;-60
2023/08/20 07:11:16;;;;;;;6.73;4.43;;;;;;;;;;5087522;28;20416;-57
2023/08/20 07:13:42;;;;;;;4.57;4.17;;;;;;;;;;5085912;28;20063;-58
2023/08/20 07:16:07;;;;;;;5.35;4.75;;;;;;;;;;5087989;28;20024;-54
2023/08/20 07:18:33;;;;;;;4.60;4.10;;;;;;;;;;5086707;28;20252;-58
2023/08/20 07:20:58;;;;;;;4.63;4.23;;;;;;;;;;5087560;28;20026;-60
2023/08/20 07:23:23;;;;;;;5.10;4.07;;;;;;;;;;5086765;28;20340;-61
2023/08/20 07:25:51;;;;;;;4.27;3.87;;;;;;;;;;5088626;28;20370;-58
2023/08/20 07:28:26;;;;;;;;;;;;;;;;;;5088299;28;20052;-61
2023/08/20 07:30:51;;;;;;;5.60;4.07;;;;;;;;;;5088329;28;19904;-60
2023/08/20 07:33:16;;;;;;;6.70;4.00;;;;;;;;;;5086836;28;20031;-55
2023/08/20 07:35:42;;;;;;;4.70;4.30;;;;;;;;;;5085956;28;20501;-57
2023/08/20 07:38:07;;;;;;;6.27;3.93;;;;;;;;;;5086684;28;20027;-58
2023/08/20 07:40:32;;;;;;;5.33;3.53;;;;;;;;;;5087951;28;20026;-61
2023/08/20 07:42:57;;;;;;;7.17;3.80;;;;;;;;;;5087180;28;20119;-57
2023/08/20 07:45:23;;;;;;;5.90;3.97;;;;;;;;;;5085923;28;20020;-58
2023/08/20 07:47:48;;;;;;;5.17;3.63;;;;;;;;;;5086156;28;20455;-60
2023/08/20 07:50:13;;;;;;;9.73;5.03;;;;;;;;;;5086951;28;20020;-60
2023/08/20 07:52:38;;;;;;;5.47;4.07;;;;;;;;;;5084323;28;20466;-57
2023/08/20 07:55:04;;;;;;;5.07;3.63;;;;;;;;;;5087824;28;20089;-54
2023/08/20 07:57:29;;;;;;;5.53;3.42;;;;;;;;;;5085013;28;20024;-61
2023/08/20 07:59:54;;;;;;;5.20;3.83;;;;;;;;;;5085098;28;20063;-53
2023/08/20 08:02:20;;;;;;;5.13;4.03;;;;;;;;;;5081960;28;20615;-60
2023/08/20 08:04:45;;;;;;;4.33;3.60;;;;;;;;;;5082215;28;20077;-61
2023/08/20 08:07:11;;;;;;;4.00;3.50;;;;;;;;;;5084180;28;20282;-61
2023/08/20 08:09:36;;;;;;;6.25;3.65;;;;;;;;;;5087346;28;20501;-61
2023/08/20 08:12:01;;;;;;;5.43;3.95;;;;;;;;;;5087129;28;20016;-58
2023/08/20 08:14:27;;;;;;;5.00;3.70;;;;;;;;;;5087805;28;20032;-60
2023/08/20 08:16:52;;;;;;;6.37;3.80;;;;;;;;;;5086535;28;20487;-61
2023/08/20 08:19:18;;;;;;;4.60;3.45;;;;;;;;;;5087498;28;20333;-60
2023/08/20 08:21:44;;;;;;;4.73;3.87;;;;;;;;;;5086207;28;20468;-61
2023/08/20 08:24:10;;;;;;;4.88;3.65;;;;;;;;;;5087997;28;20587;-61
2023/08/20 08:26:35;;;;;;;6.15;3.63;;;;;;;;;;5085417;28;20078;-61
2023/08/20 08:29:01;;;;;;;4.00;3.60;;;;;;;;;;5087377;28;20024;-58
2023/08/20 08:31:27;;;;;;;6.57;3.67;;;;;;;;;;5084500;28;20091;-60
2023/08/20 08:33:52;;;;;;;5.33;3.83;;;;;;;;;;5067295;28;20435;-60
2023/08/20 08:36:17;;;;;;;8.10;3.73;;;;;;;;;;5066576;28;20023;-61
2023/08/20 08:38:43;;;;;;;4.63;3.70;;;;;;;;;;5086412;28;20420;-55
2023/08/20 08:41:11;;;;;;;4.68;3.60;;;;;;;;;;5086695;28;20077;-56
2023/08/20 08:43:37;;;;;;;3.97;3.30;;;;;;;;;;5084933;28;20698;-56
2023/08/20 08:46:05;;;;;;;4.28;3.83;;;;;;;;;;5085934;28;20469;-57
2023/08/20 08:48:30;;;;;;;4.13;3.72;;;;;;;;;;5086198;28;20499;-61
2023/08/20 08:50:55;;;;;;;4.57;3.25;;;;;;;;;;5087015;28;20078;-56
2023/08/20 08:53:22;;;;;;;7.67;3.30;;;;;;;;;;5081979;28;20052;-59
2023/08/20 08:55:47;;;;;;;5.10;4.03;;;;;;;;;;5083656;28;20645;-62
2023/08/20 08:58:12;;;;;;;4.87;3.40;;;;;;;;;;5084591;28;20302;-57
2023/08/20 09:00:38;;;;;;;4.53;3.40;;;;;;;;;;5087135;28;20016;-58
2023/08/20 09:03:03;;;;;;;5.40;3.27;;;;;;;;;;5085662;28;20461;-62
2023/08/20 09:05:28;;;;;;;6.20;3.85;;;;;;;;;;5083689;28;20126;-55
2023/08/20 09:07:57;;;;;;;8.23;3.90;;;;;;;;;;5083626;28;20024;-59
2023/08/20 09:10:25;;;;;;;5.38;3.50;;;;;;;;;;5086061;28;20020;-56
2023/08/20 09:12:50;;;;;;;4.53;3.67;;;;;;;;;;5085986;28;20020;-61
2023/08/20 09:15:15;;;;;;;3.67;3.33;;;;;;;;;;5084954;28;20043;-57
2023/08/20 09:17:42;;;;;;;5.53;3.20;;;;;;;;;;5085375;28;20327;-58
2023/08/20 09:20:07;;;;;;;877.88;791.80;;;;;;;;;;5086574;28;20047;-60
2023/08/20 09:22:34;;;;;;;952.63;858.60;;;;;;;;;;5083516;28;20482;-58
2023/08/20 09:24:59;;;;;;;954.78;861.15;;;;;;;;;;5086686;28;20395;-56
2023/08/20 09:27:25;;;;;;;970.67;875.30;;;;;;;;;;5083924;28;20552;-57
2023/08/20 09:29:51;;;;;;;989.30;892.77;;;;;;;;;;5085512;28;20275;-61
2023/08/20 09:32:20;;;;;;;975.35;879.90;;;;;;;;;;5085858;28;20269;-57
2023/08/20 09:34:47;;;;;;;1000.45;904.47;;;;;;;;;;5086285;28;20024;-61
2023/08/20 09:37:13;;;;;;;965.03;871.42;;;;;;;;;;5085596;28;20028;-62
2023/08/20 09:39:38;;;;;;;949.28;855.72;;;;;;;;;;5086261;28;20024;-62
2023/08/20 09:42:05;;;;;;;963.85;869.08;;;;;;;;;;5083615;28;20517;-61
2023/08/20 09:44:33;;;;;;;912.78;823.85;;;;;;;;;;5085904;28;20020;-61
2023/08/20 09:46:58;;;;;;;1034.05;935.90;;;;;;;;;;5084331;28;20400;-62
2023/08/20 09:49:28;;;;;;;1003.58;906.70;;;;;;;;;;5084322;28;20031;-59
2023/08/20 09:51:55;;;;;;;963.42;869.17;;;;;;;;;;5083451;28;20513;-62
2023/08/20 09:54:21;;;;;;;982.75;888.40;;;;;;;;;;5084823;28;20397;-61
2023/08/20 09:56:51;;;;;;;967.20;873.33;;;;;;;;;;5082241;28;20027;-60
2023/08/20 09:59:17;;;;;;;996.58;900.05;;;;;;;;;;5084886;28;20422;-62
2023/08/20 10:01:42;;;;;;;990.28;895.22;;;;;;;;;;5084823;28;20499;-61
2023/08/20 10:04:08;;;;;;;989.07;894.00;;;;;;;;;;5085538;28;20114;-57
2023/08/20 10:06:33;;;;;;;1062.13;962.47;;;;;;;;;;5083423;28;20008;-55
2023/08/20 10:08:59;;;;;;;1014.03;917.57;;;;;;;;;;5085627;28;20024;-59
2023/08/20 10:11:24;;;;;;;1024.33;927.90;;;;;;;;;;5086546;28;20089;-62
2023/08/20 10:13:49;;;;;;;925.27;835.70;;;;;;;;;;5089261;28;20384;-62
2023/08/20 10:16:20;;;;;;;952.25;861.63;;;;;;;;;;5087567;28;20055;-58
2023/08/20 10:18:46;;;;;;;933.38;844.25;;;;;;;;;;5068961;28;20020;-54
2023/08/20 10:21:12;;;;;;;949.47;858.90;;;;;;;;;;5074743;28;20472;-61
2023/08/20 10:23:41;;;;;;;913.30;824.80;;;;;;;;;;5069171;28;20033;-62
2023/08/20 10:26:09;;;;;;;5.57;3.65;;;;;;;;;;5068886;28;20074;-57
2023/08/20 10:28:35;;;;;;;861.35;779.60;;;;;;;;;;5088309;28;20112;-55
2023/08/20 10:31:11;;;;;;;859.85;777.50;;;;;;;;;;5087899;28;20103;-61
2023/08/20 10:33:57;;;;;;;826.60;745.70;;;;;;;;;;5087957;28;20036;-62
2023/08/20 10:36:26;;;;;;;824.72;743.97;;;;;;;;;;5087028;28;20035;-57
2023/08/20 10:38:55;;;;;;;825.95;748.53;;;;;;;;;;5087009;28;20394;-61
2023/08/20 10:41:24;;;;;;;830.42;756.67;;;;;;;;;;5087286;28;20020;-61
2023/08/20 10:43:49;;;;;;;828.75;749.47;;;;;;;;;;5088942;28;20040;-62
2023/08/20 10:46:21;;;;;;;856.75;774.47;;;;;;;;;;5084740;28;20038;-55
2023/08/20 10:48:52;;;;;;;844.05;761.85;;;;;;;;;;5068792;28;20021;-62
2023/08/20 10:51:19;;;;;;;885.97;801.13;;;;;;;;;;5069116;28;20029;-56
2023/08/20 10:53:59;;;;;;;886.20;800.25;;;;;;;;;;5068418;28;20020;-62
2023/08/20 10:56:37;;;;;;;839.65;757.55;;;;;;;;;;5074937;28;20031;-62
2023/08/20 10:59:05;;;;;;;880.45;799.33;;;;;;;;;;5088536;28;20449;-58
2023/08/20 11:01:30;;;;;;;898.88;814.28;;;;;;;;;;5100630;28;20790;-62
2023/08/20 11:03:56;;;;;;;892.20;804.90;;;;;;;;;;5088485;28;20020;-56
2023/08/20 11:06:21;;;;;;;912.63;823.60;;;;;;;;;;5084619;28;20034;-58
2023/08/20 11:08:47;;;;;;;871.07;788.33;;;;;;;;;;5082735;28;20031;-62
2023/08/20 11:11:12;;;;;;;881.05;795.60;;;;;;;;;;5087666;28;20843;-62
2023/08/20 11:13:38;;;;;;;875.17;791.28;;;;;;;;;;5087174;28;20035;-56
2023/08/20 11:16:04;;;;;;;855.20;775.13;;;;;;;;;;5087200;28;20419;-62
2023/08/20 11:18:30;;;;;;;890.17;806.67;;;;;;;;;;5084639;28;20465;-61
2023/08/20 11:20:55;;;;;;;922.25;834.55;;;;;;;;;;5082523;28;20024;-62
2023/08/20 11:23:22;;;;;;;898.10;809.87;;;;;;;;;;5083298;28;20028;-62
2023/08/20 11:25:47;;;;;;;944.38;853.83;;;;;;;;;;5087929;28;20272;-59
2023/08/20 11:28:13;;;;;;;951.73;860.53;;;;;;;;;;5086037;28;20036;-61
2023/08/20 11:30:38;;;;;;;895.60;811.28;;;;;;;;;;5088161;28;20039;-59
2023/08/20 11:33:04;;;;;;;901.45;813.40;;;;;;;;;;5101633;28;20032;-62
2023/08/20 11:35:29;;;;;;;905.28;817.33;;;;;;;;;;5086941;28;20024;-62
2023/08/20 11:37:54;;;;;;;957.03;866.38;;;;;;;;;;5086919;28;20035;-63
2023/08/20 11:40:20;;;;;;;893.23;806.33;;;;;;;;;;5086637;28;20053;-60
2023/08/20 11:42:46;;;;;;;921.92;833.85;;;;;;;;;;5085647;28;20292;-55
2023/08/20 11:45:11;;;;;;;924.83;839.85;;;;;;;;;;5086248;28;20437;-62
2023/08/20 11:47:40;;;;;;;929.13;847.80;;;;;;;;;;5085762;28;20035;-63
2023/08/20 11:50:05;;;;;;;943.92;854.17;;;;;;;;;;5087095;28;20032;-62
2023/08/20 11:52:32;;;;;;;902.30;816.35;;;;;;;;;;5084120;28;20047;-55
2023/08/20 11:54:57;;;;;;;941.50;851.05;;;;;;;;;;5087405;28;20061;-63
2023/08/20 11:57:22;;;;;;;907.57;818.73;;;;;;;;;;5085106;28;20092;-58
2023/08/20 11:59:48;;;;;;;986.83;893.80;;;;;;;;;;5085609;28;20835;-60
2023/08/20 12:02:13;;;;;;;939.67;849.20;;;;;;;;;;5084908;28;20020;-60
2023/08/20 12:04:38;;;;;;;945.47;855.00;;;;;;;;;;5087194;28;20110;-62
2023/08/20 12:07:05;;;;;;;924.17;834.30;;;;;;;;;;5083363;28;20087;-61
2023/08/20 12:09:30;;;;;;;940.40;851.05;;;;;;;;;;5087210;28;20028;-58
2023/08/20 12:11:57;;;;;;;915.90;826.92;;;;;;;;;;5085225;28;20036;-60
2023/08/20 12:14:23;;;;;;;909.33;821.72;;;;;;;;;;5087292;28;20539;-57
2023/08/20 12:16:50;;;;;;;871.65;786.33;;;;;;;;;;5085454;28;20032;-61
2023/08/20 12:19:16;;;;;;;1012.58;928.72;;;;;;;;;;5087233;28;20023;-55
2023/08/20 12:21:43;;;;;;;850.17;767.50;;;;;;;;;;5086121;28;20032;-62
2023/08/20 12:24:08;;;;;;;956.00;864.85;;;;;;;;;;5084045;28;20070;-57
2023/08/20 12:26:34;;;;;;;944.60;853.90;;;;;;;;;;5068401;28;20028;-61
2023/08/20 12:28:59;;;;;;;905.55;816.97;;;;;;;;;;5086911;28;20145;-63
2023/08/20 12:31:25;;;;;;;950.80;859.43;;;;;;;;;;5084879;28;20856;-57
2023/08/20 12:33:50;;;;;;;925.67;840.33;;;;;;;;;;5087144;28;20016;-61
2023/08/20 12:36:15;;;;;;;936.47;846.63;;;;;;;;;;5084948;28;20249;-62
2023/08/20 12:38:41;;;;;;;892.90;805.60;;;;;;;;;;5085422;28;20017;-57
2023/08/20 12:41:07;;;;;;;941.63;850.95;;;;;;;;;;5086371;28;20024;-55
2023/08/20 12:43:32;;;;;;;928.33;840.50;;;;;;;;;;5086722;28;20035;-63
2023/08/20 12:45:57;;;;;;;964.80;878.73;;;;;;;;;;5087812;28;20028;-63
2023/08/20 12:48:22;;;;;;;949.83;858.57;;;;;;;;;;5086227;28;20272;-58
2023/08/20 12:50:48;;;;;;;955.03;864.27;;;;;;;;;;5087084;28;20287;-59
2023/08/20 12:53:13;;;;;;;994.67;900.80;;;;;;;;;;5085750;28;20056;-60
2023/08/20 12:55:38;;;;;;;951.70;860.73;;;;;;;;;;5086068;28;20031;-63
2023/08/20 12:58:04;;;;;;;922.87;834.17;;;;;;;;;;5083896;28;20033;-60
2023/08/20 13:00:29;;;;;;;938.43;846.97;;;;;;;;;;5085861;28;20774;-58
2023/08/20 13:02:55;;;;;;;964.25;872.78;;;;;;;;;;5085290;28;20268;-63
2023/08/20 13:05:22;;;;;;;937.08;846.72;;;;;;;;;;5086708;28;20286;-62
2023/08/20 13:07:47;;;;;;;925.35;835.53;;;;;;;;;;5083842;28;20060;-61
2023/08/20 13:10:13;;;;;;;957.25;865.03;;;;;;;;;;5086297;28;20056;-57
2023/08/20 13:12:40;;;;;;;978.28;885.03;;;;;;;;;;5083079;28;20027;-62
2023/08/20 13:15:06;;;;;;;974.10;881.28;;;;;;;;;;5087183;28;20366;-60
2023/08/20 13:17:32;;;;;;;969.67;875.97;;;;;;;;;;5047603;28;20027;-60
2023/08/20 13:19:57;;;;;;;979.30;885.70;;;;;;;;;;5087026;28;20020;-60
2023/08/20 13:22:22;;;;;;;972.57;879.63;;;;;;;;;;5085918;28;20529;-63
2023/08/20 13:24:48;;;;;;;958.63;866.90;;;;;;;;;;5086786;28;20279;-58
2023/08/20 13:27:13;;;;;;;974.15;881.47;;;;;;;;;;5084437;28;20028;-59
2023/08/20 13:29:40;;;;;;;977.50;883.88;;;;;;;;;;5083581;28;20032;-60
2023/08/20 13:32:05;;;;;;;978.08;883.97;;;;;;;;;;5084942;28;20024;-63
2023/08/20 13:34:31;;;;;;;1016.13;920.67;;;;;;;;;;5086481;28;20496;-62
2023/08/20 13:36:56;;;;;;;1042.55;945.38;;;;;;;;;;5085098;28;20186;-61
2023/08/20 13:39:21;;;;;;;1009.70;914.05;;;;;;;;;;5086455;28;20032;-61
2023/08/20 13:41:48;;;;;;;1077.30;978.42;;;;;;;;;;5084872;28;20028;-62
2023/08/20 13:44:13;;;;;;;1050.43;953.05;;;;;;;;;;5086541;28;20256;-59
2023/08/20 13:46:39;;;;;;;1044.30;947.03;;;;;;;;;;5089675;28;20247;-61
2023/08/20 13:49:04;;;;;;;1063.17;964.30;;;;;;;;;;5088517;28;20651;-63
2023/08/20 13:51:29;;;;;;;1012.97;916.83;;;;;;;;;;5088623;28;20048;-62
2023/08/20 13:53:55;;;;;;;1041.35;943.72;;;;;;;;;;5090180;28;20639;-60